Burkville, Alabama
Current Conditions -  °F | °C
As of 3:35 PM on Thursday 18 Dec 2014 (Local Time) from K1A9 Reporting Station
Overcast Overcast  
Wind Chill: 57°   Ceiling: 6000
Heat Index: 57°   Visibility: 10mi
Dew Point: 28°   Wind: 5mph
Humidity: 33%   Direction: 280°W
Pressure: 30.12"   Gusts: NA
Location:  32.3083°N, 86.6314°W
Report Text: K1A9 182135Z AUTO 28004KT 10SM SCT043 OVC060 14/M02 A3012 RMK AO2 T01401021
Loading
Personal Weather Stations






























Interactive Weather Map New forecast layout! Learn more

10-Day Weather Forecast

Advertisements
Track Severe Weather on mobile